National Weather Service Raw Text Product

Displaying AFOS PIL: TAFALO Received: 2018-12-06 17:25 UTC


830 
FTUS43 KDMX 061725
TAFALO
TAF
KALO 061725Z 0618/0718 32010KT P6SM BKN021
      TEMPO 0618/0622 SCT021
     FM070200 28004KT P6SM SCT015
     FM071700 24006KT P6SM SCT035=